Time;durP1;ratioP1;P1;durP2;ratioP2;P2;SDS_P1;SDS_P2;PMS_P1;PMS_P2;Temp;Humidity;BMP_temperature;BMP_pressure;BME280_temperature;BME280_humidity;BME280_pressure;Samples;Min_cycle;Max_cycle;Signal;HPM_P1;HPM_P2
2023/01/17 00:17:42;;;;;;;1999.90;999.90;;;3.70;99.90;;;;;;6709235;88;20185;-74
2023/01/17 01:39:25;;;;;;;1999.90;999.90;;;3.70;99.90;;;;;;6743970;88;20293;-73
2023/01/17 01:49:27;;;;;;;1999.90;999.90;;;3.70;99.90;;;;;;6730142;88;20835;-73
2023/01/17 01:59:29;;;;;;;1999.90;999.90;;;3.60;99.90;;;;;;6734302;88;20210;-73
2023/01/17 02:09:30;;;;;;;1999.90;999.90;;;3.30;99.90;;;;;;6733422;88;20173;-73
2023/01/17 02:19:30;;;;;;;1999.90;999.90;;;3.30;99.90;;;;;;6736157;88;20203;-73
2023/01/17 02:29:57;;;;;;;1999.90;999.90;;;3.30;99.90;;;;;;6732524;88;20215;-73
2023/01/17 02:40:05;;;;;;;1999.90;999.90;;;3.40;99.90;;;;;;6730591;88;20260;-74
2023/01/17 02:50:09;;;;;;;1999.90;999.90;;;3.40;99.90;;;;;;6729908;88;20186;-74
2023/01/17 03:00:28;;;;;;;1999.90;999.90;;;3.30;99.90;;;;;;6730547;88;20197;-73
2023/01/17 03:10:32;;;;;;;1999.90;999.90;;;3.20;99.90;;;;;;6731284;88;20306;-74
2023/01/17 03:20:33;;;;;;;1999.90;999.90;;;3.20;99.90;;;;;;6729796;88;20247;-74
2023/01/17 03:30:33;;;;;;;1999.90;999.90;;;3.30;99.90;;;;;;6730321;88;20745;-73
2023/01/17 03:40:34;;;;;;;1999.90;999.90;;;3.30;99.90;;;;;;6737236;88;20697;-73
2023/01/17 03:50:34;;;;;;;1999.90;999.90;;;3.20;99.90;;;;;;6735639;88;20337;-73
2023/01/17 04:00:35;;;;;;;1999.90;999.90;;;3.30;99.90;;;;;;6732786;88;20205;-73
2023/01/17 04:10:36;;;;;;;1999.90;999.90;;;3.20;99.90;;;;;;6726971;88;20248;-73
2023/01/17 04:20:38;;;;;;;1999.90;999.90;;;3.20;99.90;;;;;;6730855;88;20731;-74
2023/01/17 04:30:39;;;;;;;1999.90;999.90;;;3.10;99.90;;;;;;6730441;88;21147;-74
2023/01/17 04:40:40;;;;;;;1999.90;999.90;;;3.10;99.90;;;;;;6724626;88;20222;-74
2023/01/17 04:50:40;;;;;;;1999.90;999.90;;;3.10;99.90;;;;;;6730300;88;20659;-74
2023/01/17 05:00:41;;;;;;;1999.90;999.90;;;2.90;99.90;;;;;;6729724;88;20218;-74
2023/01/17 05:10:44;;;;;;;1999.90;999.90;;;2.80;99.90;;;;;;6753800;88;20230;-75
2023/01/17 05:20:44;;;;;;;1999.90;999.90;;;2.70;99.90;;;;;;6728041;88;20684;-74
2023/01/17 05:30:45;;;;;;;1999.90;999.90;;;2.60;99.90;;;;;;6729857;88;20210;-73
2023/01/17 05:40:45;;;;;;;1999.90;999.90;;;2.40;99.90;;;;;;6723435;88;20192;-74
2023/01/17 05:50:46;;;;;;;1999.90;999.90;;;2.40;99.90;;;;;;6722026;88;20185;-74
2023/01/17 06:00:48;;;;;;;1999.90;999.90;;;2.20;99.90;;;;;;6726731;88;20202;-74
2023/01/17 06:10:48;;;;;;;1999.90;999.90;;;2.10;99.90;;;;;;6722916;88;20601;-74
2023/01/17 06:20:53;;;;;;;1999.90;999.90;;;2.00;99.90;;;;;;6726701;88;20210;-73
2023/01/17 06:30:54;;;;;;;1999.90;999.90;;;2.20;99.90;;;;;;6728843;88;20572;-73
2023/01/17 06:40:57;;;;;;;1999.90;999.90;;;2.20;99.90;;;;;;6726590;88;20637;-74
2023/01/17 06:50:57;;;;;;;1999.90;999.90;;;2.10;99.90;;;;;;6728956;88;20185;-75
2023/01/17 07:00:58;;;;;;;1999.90;999.90;;;2.20;99.90;;;;;;6731106;88;20206;-74
2023/01/17 07:11:01;;;;;;;1999.90;999.90;;;2.10;99.90;;;;;;6730260;88;20185;-74
2023/01/17 07:21:01;;;;;;;1999.90;999.90;;;2.10;99.90;;;;;;6730680;88;20217;-74
2023/01/17 07:41:05;;;;;;;1999.90;999.90;;;2.30;99.90;;;;;;6699941;88;20356;-79
2023/01/17 07:51:07;;;;;;;1999.90;999.90;;;2.20;99.90;;;;;;6687287;88;20227;-79
2023/01/17 08:01:11;;;;;;;1999.90;999.90;;;2.20;99.90;;;;;;6688163;89;20606;-78
2023/01/17 08:11:12;;;;;;;1999.90;999.90;;;2.10;99.90;;;;;;6701671;88;20206;-78
2023/01/17 08:21:15;;;;;;;1999.90;999.90;;;1.90;99.90;;;;;;6702101;88;20297;-79
2023/01/17 08:31:16;;;;;;;1999.90;999.90;;;1.90;99.90;;;;;;6697916;88;20739;-80
2023/01/17 08:41:20;;;;;;;1999.90;999.90;;;2.00;99.90;;;;;;6683817;88;20221;-80
2023/01/17 08:51:25;;;;;;;1999.90;999.90;;;2.20;99.90;;;;;;6683131;89;20763;-80
2023/01/17 09:01:25;;;;;;;1999.90;999.90;;;2.50;99.90;;;;;;6684387;89;20207;-79
2023/01/17 09:11:26;;;;;;;1999.90;999.90;;;3.10;99.90;;;;;;6698484;88;20826;-79
2023/01/17 09:21:26;;;;;;;1999.90;999.90;;;3.80;99.90;;;;;;6685203;88;20227;-78
2023/01/17 09:31:27;;;;;;;1999.90;999.90;;;4.30;99.90;;;;;;6683886;88;20179;-80
2023/01/17 09:41:42;;;;;;;1999.90;999.90;;;5.10;99.90;;;;;;6684210;89;20216;-79
2023/01/17 09:51:44;;;;;;;1999.90;999.90;;;5.30;99.90;;;;;;6685383;89;20407;-79
2023/01/17 10:02:00;;;;;;;1999.90;999.90;;;4.90;99.90;;;;;;6688993;88;20207;-80
2023/01/17 10:12:20;;;;;;;;;;;5.00;99.90;;;;;;6688026;89;20186;-79
2023/01/17 10:22:54;;;;;;;1999.90;999.90;;;4.90;99.90;;;;;;6688948;88;20068;-79
2023/01/17 10:32:58;;;;;;;1999.90;999.90;;;4.70;99.90;;;;;;6687415;89;20284;-80
2023/01/17 10:43:18;;;;;;;1999.90;999.90;;;5.10;99.90;;;;;;6671899;88;20220;-81
2023/01/17 10:53:50;;;;;;;1999.90;999.90;;;5.50;99.90;;;;;;6678858;89;20711;-79
2023/01/17 11:03:53;;;;;;;1999.90;999.90;;;6.70;99.90;;;;;;6688855;88;20207;-81
2023/01/17 11:13:55;;;;;;;1999.90;999.90;;;7.70;99.90;;;;;;6670435;88;20239;-80
2023/01/17 11:23:56;;;;;;;1999.90;999.90;;;6.90;99.90;;;;;;6685934;88;20245;-80
2023/01/17 11:34:06;;;;;;;1999.90;999.90;;;6.90;99.90;;;;;;6670343;88;20726;-80
2023/01/17 11:44:29;;;;;;;1999.90;999.90;;;5.80;99.90;;;;;;6672112;88;20581;-79
2023/01/17 11:54:37;;;;;;;1999.90;999.90;;;5.50;99.90;;;;;;6670524;88;20214;-79
2023/01/17 12:04:44;;;;;;;1999.90;999.90;;;6.40;99.90;;;;;;6668500;89;20202;-79
2023/01/17 12:15:07;;;;;;;1999.90;999.90;;;6.30;99.90;;;;;;6667854;89;20203;-80
2023/01/17 12:25:28;;;;;;;1999.90;999.90;;;6.50;99.90;;;;;;6667939;88;20209;-80
2023/01/17 12:35:41;;;;;;;1999.90;999.90;;;6.30;99.90;;;;;;6669077;89;20200;-81
2023/01/17 12:45:46;;;;;;;1999.90;999.90;;;6.10;99.90;;;;;;6668967;89;20179;-81
2023/01/17 12:55:59;;;;;;;1999.90;999.90;;;5.90;99.90;;;;;;6667649;89;20222;-81
2023/01/17 13:06:02;;;;;;;1999.90;999.90;;;5.80;99.90;;;;;;6668123;89;20508;-80
2023/01/17 13:16:14;;;;;;;1999.90;999.90;;;6.10;99.90;;;;;;6667162;89;20208;-80
2023/01/17 13:26:58;;;;;;;1999.90;999.90;;;7.10;99.90;;;;;;6667543;89;20221;-81
2023/01/17 13:37:17;;;;;;;1999.90;999.90;;;9.00;99.90;;;;;;6715960;78;20205;-75
2023/01/17 13:47:18;;;;;;;1999.90;999.90;;;11.20;99.60;;;;;;6740384;88;20735;-75
2023/01/17 13:57:24;;;;;;;1999.90;999.90;;;11.90;98.00;;;;;;6739350;88;20255;-75
2023/01/17 14:07:25;;;;;;;1999.90;999.90;;;10.80;99.30;;;;;;6742089;88;20210;-76
2023/01/17 14:17:34;;;;;;;1999.90;999.90;;;10.50;99.40;;;;;;6742342;88;20217;-76
2023/01/17 14:27:41;;;;;;;1999.90;999.90;;;10.90;99.10;;;;;;6735629;88;20183;-74
2023/01/17 14:37:46;;;;;;;1999.90;999.90;;;10.00;99.90;;;;;;6738843;88;20242;-75
2023/01/17 14:47:47;;;;;;;1999.90;999.90;;;9.80;99.70;;;;;;6739062;88;20703;-76
2023/01/17 14:57:55;;;;;;;1999.90;999.90;;;9.40;99.90;;;;;;6739661;88;20344;-76
2023/01/17 15:07:57;;;;;;;1999.90;999.90;;;8.20;99.90;;;;;;6737043;88;20214;-76
2023/01/17 15:18:18;;;;;;;1999.90;999.90;;;7.60;99.90;;;;;;6737422;88;20313;-76
2023/01/17 15:28:19;;;;;;;1999.90;999.90;;;7.10;99.90;;;;;;6740951;88;20342;-76
2023/01/17 15:38:21;;;;;;;1999.90;999.90;;;6.30;99.90;;;;;;6739192;88;20199;-75
2023/01/17 15:48:43;;;;;;;1999.90;999.90;;;5.40;99.90;;;;;;6737654;88;20259;-75
2023/01/17 15:58:44;;;;;;;1999.90;999.90;;;5.00;99.90;;;;;;6734319;88;20189;-76
2023/01/17 16:08:51;;;;;;;1999.90;999.90;;;4.70;99.90;;;;;;6737066;88;20694;-73
2023/01/17 16:18:57;;;;;;;1999.90;999.90;;;4.30;99.90;;;;;;6741898;88;20218;-77
2023/01/17 16:28:58;;;;;;;;;;;4.00;99.90;;;;;;6738087;88;20221;-76
2023/01/17 16:38:58;;;;;;;1999.90;999.90;;;3.70;99.90;;;;;;6743346;88;20056;-75
2023/01/17 16:49:00;;;;;;;1999.90;999.90;;;3.40;99.90;;;;;;6740488;88;20235;-76
2023/01/17 16:59:00;;;;;;;1999.90;999.90;;;3.20;99.90;;;;;;6740384;88;20613;-77
2023/01/17 17:09:01;;;;;;;1999.90;999.90;;;2.80;99.90;;;;;;6741130;88;20210;-75
2023/01/17 17:19:04;;;;;;;1999.90;999.90;;;2.50;99.90;;;;;;6737322;88;20688;-74
2023/01/17 17:29:09;;;;;;;1999.90;999.90;;;2.30;99.90;;;;;;6738987;88;20211;-78
2023/01/17 17:39:13;;;;;;;1999.90;999.90;;;2.10;99.90;;;;;;6740393;88;20217;-74
2023/01/17 17:49:15;;;;;;;1999.90;999.90;;;2.20;99.90;;;;;;6743342;88;20574;-75
2023/01/17 17:59:19;;;;;;;1999.90;999.90;;;1.70;99.90;;;;;;6740568;88;21509;-76
2023/01/17 18:09:20;;;;;;;1999.90;999.90;;;1.60;99.90;;;;;;6741906;88;20236;-75
2023/01/17 18:19:23;;;;;;;1999.90;999.90;;;1.50;99.90;;;;;;6742169;88;20222;-76
2023/01/17 18:29:25;;;;;;;1999.90;999.90;;;1.30;99.90;;;;;;6748532;88;20464;-75
2023/01/17 18:39:28;;;;;;;1999.90;999.90;;;1.20;99.90;;;;;;6739583;88;20683;-75
2023/01/17 18:49:31;;;;;;;1999.90;999.90;;;1.00;99.90;;;;;;6739282;88;20249;-75
2023/01/17 18:59:31;;;;;;;1999.90;999.90;;;0.90;99.90;;;;;;6736903;88;21136;-74
2023/01/17 19:09:32;;;;;;;1999.90;999.90;;;0.90;99.90;;;;;;6739589;88;20243;-73
2023/01/17 19:19:33;;;;;;;1999.90;999.90;;;0.60;99.90;;;;;;6738013;88;20256;-73
2023/01/17 19:29:33;;;;;;;1999.90;999.90;;;0.60;99.90;;;;;;6737625;88;20338;-74
2023/01/17 19:39:34;;;;;;;1999.90;999.90;;;0.60;99.90;;;;;;6737915;88;20204;-74
2023/01/17 19:49:34;;;;;;;1999.90;999.90;;;0.50;99.90;;;;;;6734853;88;20212;-75
2023/01/17 19:59:35;;;;;;;1999.90;999.90;;;0.40;99.90;;;;;;6737361;88;20267;-74
2023/01/17 20:09:35;;;;;;;1999.90;999.90;;;0.30;99.90;;;;;;6737212;88;20186;-72
2023/01/17 20:19:36;;;;;;;1999.90;999.90;;;0.20;99.90;;;;;;6735571;88;20189;-74
2023/01/17 20:29:39;;;;;;;1999.90;999.90;;;0.10;99.90;;;;;;6736526;88;20308;-73
2023/01/17 20:39:40;;;;;;;1999.90;999.90;;;0.00;99.90;;;;;;6730364;88;20766;-73
2023/01/17 20:49:42;;;;;;;1999.90;999.90;;;0.00;99.90;;;;;;6742320;88;20185;-73
2023/01/17 20:59:44;;;;;;;1999.90;999.90;;;-0.20;99.90;;;;;;6744022;88;20318;-73
2023/01/17 21:09:45;;;;;;;1999.90;999.90;;;-0.30;99.90;;;;;;6736267;88;20223;-73
2023/01/17 21:19:45;;;;;;;1999.90;999.90;;;-0.30;99.90;;;;;;6739486;88;20253;-73
2023/01/17 21:29:45;;;;;;;1999.90;999.90;;;-0.30;99.90;;;;;;6732391;88;20717;-75
2023/01/17 21:39:50;;;;;;;1999.90;999.90;;;-0.30;99.90;;;;;;6733769;88;20625;-75
2023/01/17 21:49:50;;;;;;;1999.90;999.90;;;-0.20;99.90;;;;;;6732713;88;20255;-74
2023/01/17 21:59:51;;;;;;;1999.90;999.90;;;-0.40;99.90;;;;;;6737423;88;20201;-74
2023/01/17 22:09:52;;;;;;;1999.90;999.90;;;-0.50;99.90;;;;;;6744913;88;20266;-74
2023/01/17 22:19:52;;;;;;;1999.90;999.90;;;-0.40;99.90;;;;;;6734611;88;20638;-74
2023/01/17 22:29:53;;;;;;;1999.90;999.90;;;-0.30;99.90;;;;;;6733175;88;20308;-74
2023/01/17 22:39:53;;;;;;;1999.90;999.90;;;-0.30;99.90;;;;;;6738780;88;20185;-74
2023/01/17 22:49:54;;;;;;;1999.90;999.90;;;-0.50;99.90;;;;;;6737152;88;20227;-74
2023/01/17 22:59:54;;;;;;;1999.90;999.90;;;-0.60;99.90;;;;;;6736449;88;20604;-74
2023/01/17 23:09:55;;;;;;;1999.90;999.90;;;-0.50;99.90;;;;;;6735424;88;20686;-74
2023/01/17 23:19:55;;;;;;;1999.90;999.90;;;-0.50;99.90;;;;;;6736243;88;20215;-75
2023/01/17 23:29:56;;;;;;;1999.90;999.90;;;-0.50;99.90;;;;;;6734862;88;20229;-74
2023/01/17 23:39:56;;;;;;;1999.90;999.90;;;-0.60;99.90;;;;;;6734454;88;20228;-74
2023/01/17 23:49:57;;;;;;;1999.90;999.90;;;-0.70;99.90;;;;;;6737527;88;21031;-74
2023/01/17 23:59:57;;;;;;;1999.90;999.90;;;-0.70;99.90;;;;;;6741264;88;20176;-74
